Saint Thomas, VI

3:24 PM AST on September 01, 2014 (GMT -0400)
King | Change Station
CLOSE
Current Station
Airport
Location: St. Thomas,
Elevation: 23 ft
Nearby Weather Stations

Elev 23 ft 18.34 °N, 64.97 °W | Updated 3 hours ago

Partly Cloudy
Partly Cloudy
86 °F
Feels Like 93 °F
N
14
Wind Variable Wind from SE

Today
High -- | Low -- °F
--% Chance of Precip.
Yesterday
High -- | Low -- °F
Precip. -- in
6:05 AM 6:34 PM
Waxing Crescent, 43% visible
Pressure 30.04 in
Visibility 10.0 miles
Clouds Few 4500 ft
Heat Index 93 °F
Dew Point 73 °F
Humidity 65%
Rainfall 0.01 in
Snow Depth Not available.
UV 11 out of 12
Pollen Not available.
Air Quality Not available.
Flu Activity Not available.
METAR TIST 011553Z 14012KT 10SM FEW045 30/23 A3004 RMK AO2 SLP172 T03000228

More Conditions Fewer Conditions

Pressure 30.04 in
Visibility 10.0 miles
Clouds Few 4500 ft
Heat Index 93 °F
Dew Point 73 °F
Humidity 65%
Rainfall 0.01 in
Snow Depth Not available.
UV 11 out of 12
Pollen Not available.
Air Quality Not available.
Flu Activity Not available.
METAR TIST 011553Z 14012KT 10SM FEW045 30/23 A3004 RMK AO2 SLP172 T03000228

More Conditions Fewer Conditions

10-Day Weather Forecast

Almanac

Astronomy

Sep. 01, 2014 Rise Set
Actual Time 6:05 AM AST 6:34 PM AST
Civil Twilight 5:43 AM AST 6:56 PM AST
Nautical Twilight 5:17 AM AST 7:21 PM AST
Astronomical Twilight 4:51 AM AST 7:47 PM AST
Moon 11:51 AM AST 11:28 PM AST
Length of Visible Light 13h 12m
Length of Day
12h 28m
Tomorrow will be 1m 0s shorter.
Waxing Crescent, 43% of the Moon is Illuminated
Today
Waxing Crescent
Sep 2
First Quarter
Sep 8
Full
Sep 15
Last Quarter
Sep 24
New

Community

WunderPhotos

Upload Photos

1,749,378 photos uploaded!

WunderBlogs® & News

Nearby

Snow Depth

Station Depth Elevation
No new snow has been reported.

Earthquake Activity

City Distance Mag. Time & Date
No recent earthquake activity has been reported nearby.
Minimum magnitude displayed is 2.5.

Coastal Water Temperatures

Place Temperature
Yabucoa Harbor, PR 87.1 °F
Esperanza, PR 84.9 °F
Charlotte Amalie, VI 84.9 °F

Nearby Weather Stations